createdAt,value
2022-09-09T00:01:56.910Z,99415.44
2022-09-09T00:05:28.921Z,99407.03
2022-09-09T00:08:38.710Z,99407.06
2022-09-09T00:11:41.728Z,99391.81
2022-09-09T00:14:59.575Z,99394.63
2022-09-09T00:18:30.484Z,99390.03
2022-09-09T00:21:19.557Z,99380.59
2022-09-09T00:24:29.264Z,99398.19
2022-09-09T00:27:41.029Z,99393.84
2022-09-09T00:30:35.296Z,99389.22
2022-09-09T00:33:25.903Z,99394.81
2022-09-09T00:36:17.431Z,99364.75
2022-09-09T00:39:06.847Z,99395.34
2022-09-09T00:42:25.943Z,99395.31
2022-09-09T00:45:39.935Z,99400.94
2022-09-09T00:49:05.415Z,99404.22
2022-09-09T00:52:19.868Z,99374.91
2022-09-09T00:55:49.041Z,99399.84
2022-09-09T00:58:36.915Z,99403.09
2022-09-09T01:01:24.787Z,99389.31
2022-09-09T01:04:22.563Z,99403.56
2022-09-09T01:07:19.807Z,99399.47
2022-09-09T01:10:35.305Z,99407.63
2022-09-09T01:13:36.122Z,99406.56
2022-09-09T01:16:24.024Z,99402.16
2022-09-09T01:19:32.000Z,99395.53
2022-09-09T01:22:51.167Z,99404.41
2022-09-09T01:25:44.663Z,99399.25
2022-09-09T01:28:36.483Z,99403.84
2022-09-09T01:31:35.790Z,99398.53
2022-09-09T01:34:28.409Z,99390.88
2022-09-09T01:37:16.223Z,99408.63
2022-09-09T01:40:04.564Z,99412.13
2022-09-09T01:42:53.345Z,99413.22
2022-09-09T01:45:42.792Z,99373.66
2022-09-09T01:48:31.409Z,99407.41
2022-09-09T01:51:19.368Z,99395.94
2022-09-09T01:54:08.610Z,99402.03
2022-09-09T01:57:24.688Z,99410.47
2022-09-09T02:00:15.248Z,99410.69
2022-09-09T02:03:26.437Z,99401.06
2022-09-09T02:06:38.597Z,99407.06
2022-09-09T02:09:31.042Z,99418.28
2022-09-09T02:12:23.770Z,99410.16
2022-09-09T02:15:31.534Z,99397.72
2022-09-09T02:18:28.390Z,99398.53
2022-09-09T02:21:18.442Z,99407.19
2022-09-09T02:24:11.666Z,99388.03
2022-09-09T02:27:02.322Z,99386.06
2022-09-09T02:29:52.522Z,99417.41
2022-09-09T02:32:43.535Z,99405.22
2022-09-09T02:35:33.654Z,99404.22
2022-09-09T02:38:25.581Z,99401.97
2022-09-09T02:41:13.412Z,99411.47
2022-09-09T02:44:01.766Z,99419.66
2022-09-09T02:47:01.618Z,99420.94
2022-09-09T02:50:18.584Z,99418.38
2022-09-09T02:53:18.262Z,99421.47
2022-09-09T02:56:15.677Z,99403.91
2022-09-09T02:59:05.749Z,99396.00
2022-09-09T03:01:54.271Z,99411.06
2022-09-09T03:04:45.292Z,99403.97
2022-09-09T03:07:33.184Z,99366.22
2022-09-09T03:10:21.029Z,99392.13
2022-09-09T03:13:08.975Z,99410.25
2022-09-09T03:15:56.820Z,99389.91
2022-09-09T03:18:46.010Z,99394.75
2022-09-09T03:21:33.934Z,99404.88
2022-09-09T03:24:22.296Z,99392.09
2022-09-09T03:27:10.223Z,99404.31
2022-09-09T03:29:58.550Z,99396.72
2022-09-09T03:32:49.010Z,99400.03
2022-09-09T03:35:37.265Z,99393.66
2022-09-09T03:38:25.709Z,99400.50
2022-09-09T03:41:13.797Z,99404.25
2022-09-09T03:44:01.673Z,99402.75
2022-09-09T03:46:49.570Z,99399.88
2022-09-09T03:49:37.293Z,99401.66
2022-09-09T03:52:27.085Z,99402.44
2022-09-09T03:55:14.825Z,99409.59
2022-09-09T03:58:02.549Z,99389.44
2022-09-09T04:01:06.775Z,99406.81
2022-09-09T04:03:55.773Z,99383.59
2022-09-09T04:06:43.604Z,99372.41
2022-09-09T04:09:31.313Z,99397.22
2022-09-09T04:12:19.113Z,99372.44
2022-09-09T04:15:07.524Z,99381.94
2022-09-09T04:17:55.331Z,99391.41
2022-09-09T04:20:44.491Z,99394.50
2022-09-09T04:23:32.345Z,99388.91
2022-09-09T04:26:21.068Z,99383.31
2022-09-09T04:29:09.090Z,99382.75
2022-09-09T04:31:56.945Z,99373.88
2022-09-09T04:34:45.905Z,99373.09
2022-09-09T04:37:33.857Z,99372.31
2022-09-09T04:40:23.235Z,99376.91
2022-09-09T04:43:14.267Z,99363.69
2022-09-09T04:46:02.590Z,99385.56
2022-09-09T04:48:51.254Z,99377.69
2022-09-09T04:51:39.912Z,99375.63
2022-09-09T04:54:29.378Z,99378.94
2022-09-09T04:57:18.887Z,99382.25
2022-09-09T05:00:07.888Z,99390.91
2022-09-09T05:02:55.686Z,99392.63
2022-09-09T05:05:43.513Z,99398.97
2022-09-09T05:08:31.384Z,99403.31
2022-09-09T05:11:26.724Z,99405.09
2022-09-09T05:14:15.654Z,99403.28
2022-09-09T05:17:03.640Z,99415.25
2022-09-09T05:19:51.412Z,99408.38
2022-09-09T05:22:39.153Z,99414.97
2022-09-09T05:25:27.042Z,99417.50
2022-09-09T05:28:14.860Z,99429.78
2022-09-09T05:31:06.380Z,99417.91
2022-09-09T05:33:54.219Z,99425.56
2022-09-09T05:36:42.052Z,99432.97
2022-09-09T05:39:30.008Z,99395.47
2022-09-09T05:42:18.024Z,99431.66
2022-09-09T05:45:08.744Z,99420.44
2022-09-09T05:47:56.500Z,99451.56
2022-09-09T05:50:46.052Z,99438.31
2022-09-09T05:53:35.311Z,99457.94
2022-09-09T05:56:26.719Z,99457.94
2022-09-09T05:59:15.867Z,99450.53
2022-09-09T06:02:03.707Z,99458.13
2022-09-09T06:04:51.734Z,99455.34
2022-09-09T06:07:42.968Z,99468.34
2022-09-09T06:10:30.773Z,99470.94
2022-09-09T06:13:19.030Z,99454.97
2022-09-09T06:16:17.563Z,99447.34
2022-09-09T06:19:05.460Z,99466.31
2022-09-09T06:21:53.283Z,99459.25
2022-09-09T06:24:41.073Z,99455.69
2022-09-09T06:27:29.831Z,99438.16
2022-09-09T06:30:18.248Z,99451.13
2022-09-09T06:33:06.080Z,99458.53
2022-09-09T06:35:55.120Z,99453.94
2022-09-09T06:38:43.547Z,99473.09
2022-09-09T06:41:33.895Z,99455.25
2022-09-09T06:44:21.631Z,99456.53
2022-09-09T06:47:09.437Z,99452.72
2022-09-09T06:49:57.357Z,99467.50
2022-09-09T06:52:48.825Z,99478.44
2022-09-09T06:55:36.572Z,99474.38
2022-09-09T06:58:24.326Z,99474.88
2022-09-09T07:01:19.827Z,99464.94
2022-09-09T07:04:08.609Z,99478.47
2022-09-09T07:06:56.391Z,99459.84
2022-09-09T07:09:44.223Z,99465.66
2022-09-09T07:12:32.125Z,99466.72
2022-09-09T07:15:20.417Z,99469.53
2022-09-09T07:18:08.567Z,99471.50
2022-09-09T07:20:57.894Z,99451.66
2022-09-09T07:23:45.846Z,99467.50
2022-09-09T07:26:33.808Z,99461.38
2022-09-09T07:29:21.541Z,99473.63
2022-09-09T07:32:09.292Z,99469.28
2022-09-09T07:34:59.011Z,99476.91
2022-09-09T07:37:50.304Z,99472.84
2022-09-09T07:40:39.488Z,99482.28
2022-09-09T07:43:27.738Z,99492.69
2022-09-09T07:46:18.046Z,99481.44
2022-09-09T07:49:06.243Z,99476.34
2022-09-09T07:51:54.341Z,99490.09
2022-09-09T07:54:42.802Z,99494.94
2022-09-09T07:57:31.767Z,99468.44
2022-09-09T08:00:20.508Z,99497.50
2022-09-09T08:03:08.546Z,99491.91
2022-09-09T08:06:03.266Z,99509.41
2022-09-09T08:08:52.199Z,99521.66
2022-09-09T08:11:41.668Z,99517.09
2022-09-09T08:14:30.732Z,99517.59
2022-09-09T08:17:18.683Z,99503.38
2022-09-09T08:20:06.918Z,99519.97
2022-09-09T08:22:57.079Z,99523.50
2022-09-09T08:25:46.498Z,99515.84
2022-09-09T08:28:34.349Z,99513.06
2022-09-09T08:31:31.302Z,99516.38
2022-09-09T08:34:22.337Z,99506.66
2022-09-09T08:37:10.088Z,99518.81
2022-09-09T08:39:57.842Z,99510.38
2022-09-09T08:42:55.011Z,99503.47
2022-09-09T08:46:07.618Z,99516.13
2022-09-09T08:49:33.989Z,99513.09
2022-09-09T08:52:29.813Z,99508.00
2022-09-09T08:55:59.696Z,99491.44
2022-09-09T08:58:56.166Z,99497.03
2022-09-09T09:02:02.553Z,99488.31
2022-09-09T09:05:02.466Z,99492.31
2022-09-09T09:07:53.090Z,99492.56
2022-09-09T09:10:55.275Z,99485.88
2022-09-09T09:13:59.763Z,99472.00
2022-09-09T09:17:06.370Z,99484.34
2022-09-09T09:19:54.320Z,99465.28
2022-09-09T09:22:53.777Z,99464.81
2022-09-09T09:25:45.229Z,99470.97
2022-09-09T09:28:34.948Z,99475.31
2022-09-09T09:31:24.130Z,99490.09
2022-09-09T09:34:14.855Z,99484.47
2022-09-09T09:37:03.211Z,99488.72
2022-09-09T09:40:06.520Z,99476.94
2022-09-09T09:43:09.559Z,99479.94
2022-09-09T09:46:16.753Z,99495.75
2022-09-09T09:49:10.370Z,99495.34
2022-09-09T09:52:02.994Z,99475.75
2022-09-09T09:54:53.207Z,99473.47
2022-09-09T09:57:41.041Z,99466.88
2022-09-09T10:00:28.871Z,99502.88
2022-09-09T10:03:27.650Z,99485.59
2022-09-09T10:06:15.439Z,99478.47
2022-09-09T10:09:18.632Z,99493.47
2022-09-09T10:12:49.755Z,99502.66
2022-09-09T10:16:19.674Z,99497.06
2022-09-09T10:19:17.255Z,99470.50
2022-09-09T10:22:29.613Z,99475.84
2022-09-09T10:25:51.816Z,99494.25
2022-09-09T10:29:36.049Z,99488.38
2022-09-09T10:32:47.095Z,99476.91
2022-09-09T10:35:49.265Z,99488.66
2022-09-09T10:38:44.396Z,99490.16
2022-09-09T10:42:04.678Z,99460.56
2022-09-09T10:45:23.259Z,99481.97
2022-09-09T10:48:27.407Z,99476.38
2022-09-09T10:51:42.531Z,99478.44
2022-09-09T10:54:47.650Z,99478.94
2022-09-09T10:57:42.881Z,99478.94
2022-09-09T11:00:46.608Z,99467.72
2022-09-09T11:03:36.188Z,99459.03
2022-09-09T11:06:34.060Z,99471.69
2022-09-09T11:09:37.718Z,99463.88
2022-09-09T11:12:27.822Z,99462.41
2022-09-09T11:15:32.884Z,99443.25
2022-09-09T11:18:23.935Z,99461.78
2022-09-09T11:21:37.564Z,99453.44
2022-09-09T11:24:38.346Z,99461.50
2022-09-09T11:27:43.642Z,99456.50
2022-09-09T11:30:59.362Z,99457.13
2022-09-09T11:34:40.709Z,99451.09
2022-09-09T11:38:02.870Z,99453.44
2022-09-09T11:41:08.218Z,99451.91
2022-09-09T11:43:56.710Z,99434.34
2022-09-09T11:46:47.626Z,99430.13
2022-09-09T11:49:43.357Z,99424.41
2022-09-09T11:52:46.728Z,99459.09
2022-09-09T11:55:37.758Z,99447.03
2022-09-09T11:58:25.535Z,99452.09
2022-09-09T12:01:29.368Z,99446.13
2022-09-09T12:04:25.569Z,99445.72
2022-09-09T12:07:47.676Z,99437.81
2022-09-09T12:10:40.128Z,99449.09
2022-09-09T12:13:28.574Z,99442.75
2022-09-09T12:16:38.340Z,99450.06
2022-09-09T12:19:27.173Z,99452.56
2022-09-09T12:22:51.993Z,99449.31
2022-09-09T12:25:45.164Z,99467.28
2022-09-09T12:28:47.722Z,99459.78
2022-09-09T12:32:13.045Z,99429.16
2022-09-09T12:35:12.836Z,99452.69
2022-09-09T12:38:03.407Z,99440.84
2022-09-09T12:40:58.860Z,99426.63
2022-09-09T12:43:46.796Z,99432.63
2022-09-09T12:46:43.065Z,99433.06
2022-09-09T12:49:39.295Z,99455.06
2022-09-09T12:52:34.303Z,99462.50
2022-09-09T12:55:31.047Z,99458.38
2022-09-09T12:58:20.646Z,99450.22
2022-09-09T13:01:26.840Z,99444.97
2022-09-09T13:04:23.281Z,99447.03
2022-09-09T13:07:13.115Z,99454.66
2022-09-09T13:10:03.328Z,99437.06
2022-09-09T13:12:51.099Z,99449.69
2022-09-09T13:15:38.902Z,99454.47
2022-09-09T13:18:34.321Z,99443.38
2022-09-09T13:21:34.128Z,99446.22
2022-09-09T13:24:35.735Z,99435.50
2022-09-09T13:27:39.920Z,99441.66
2022-09-09T13:30:31.027Z,99424.44
2022-09-09T13:33:24.095Z,99412.47
2022-09-09T13:36:15.391Z,99428.25
2022-09-09T13:39:04.913Z,99415.28
2022-09-09T13:41:53.988Z,99420.84
2022-09-09T13:44:42.726Z,99405.34
2022-09-09T13:47:35.456Z,99420.03
2022-09-09T13:50:29.550Z,99402.16
2022-09-09T13:53:17.312Z,99419.50
2022-09-09T13:56:06.230Z,99411.28
2022-09-09T13:58:53.990Z,99403.13
2022-09-09T14:01:42.389Z,99420.41
2022-09-09T14:04:30.187Z,99416.63
2022-09-09T14:07:19.376Z,99413.09
2022-09-09T14:10:08.174Z,99437.41
2022-09-09T14:12:55.946Z,99419.59
2022-09-09T14:15:43.752Z,99434.38
2022-09-09T14:18:31.631Z,99442.28
2022-09-09T14:21:19.421Z,99436.72
2022-09-09T14:24:07.294Z,99391.72
2022-09-09T14:26:55.894Z,99434.72
2022-09-09T14:29:45.213Z,99438.88
2022-09-09T14:32:33.977Z,99413.66
2022-09-09T14:35:21.725Z,99429.66
2022-09-09T14:38:10.301Z,99436.78
2022-09-09T14:40:59.438Z,99439.81
2022-09-09T14:43:47.712Z,99419.41
2022-09-09T14:46:35.579Z,99428.50
2022-09-09T14:49:23.318Z,99416.25
2022-09-09T14:52:11.115Z,99416.50
2022-09-09T14:54:58.930Z,99400.69
2022-09-09T14:57:47.162Z,99418.47
2022-09-09T15:00:35.069Z,99397.78
2022-09-09T15:03:24.052Z,99415.59
2022-09-09T15:06:15.619Z,99416.47
2022-09-09T15:09:03.717Z,99416.66
2022-09-09T15:11:51.549Z,99411.69
2022-09-09T15:14:39.387Z,99411.88
2022-09-09T15:17:28.157Z,99408.03
2022-09-09T15:20:16.932Z,99415.25
2022-09-09T15:23:05.528Z,99417.78
2022-09-09T15:25:56.026Z,99410.56
2022-09-09T15:28:45.707Z,99411.22
2022-09-09T15:31:33.625Z,99427.59
2022-09-09T15:34:21.511Z,99404.28
2022-09-09T15:37:14.069Z,99413.00
2022-09-09T15:40:02.096Z,99424.03
2022-09-09T15:42:50.102Z,99426.72
2022-09-09T15:45:38.376Z,99406.31
2022-09-09T15:48:35.311Z,99418.13
2022-09-09T15:51:41.662Z,99423.72
2022-09-09T15:54:39.536Z,99419.44
2022-09-09T15:57:28.095Z,99423.34
2022-09-09T16:00:16.203Z,99422.91
2022-09-09T16:03:04.073Z,99428.28
2022-09-09T16:05:52.896Z,99420.47
2022-09-09T16:08:44.382Z,99433.78
2022-09-09T16:11:36.679Z,99438.91
2022-09-09T16:14:26.327Z,99442.28
2022-09-09T16:17:15.189Z,99426.75
2022-09-09T16:20:03.538Z,99434.19
2022-09-09T16:22:52.401Z,99431.94
2022-09-09T16:25:40.156Z,99414.59
2022-09-09T16:28:28.660Z,99437.31
2022-09-09T16:31:22.417Z,99433.25
2022-09-09T16:34:10.986Z,99434.81
2022-09-09T16:36:58.763Z,99442.47
2022-09-09T16:39:47.268Z,99426.69
2022-09-09T16:42:39.368Z,99409.13
2022-09-09T16:45:27.357Z,99425.91
2022-09-09T16:48:15.080Z,99445.78
2022-09-09T16:51:16.417Z,99402.25
2022-09-09T16:54:08.056Z,99436.88
2022-09-09T16:56:55.846Z,99439.69
2022-09-09T16:59:43.678Z,99434.59
2022-09-09T17:02:31.516Z,99445.56
2022-09-09T17:05:19.530Z,99453.94
2022-09-09T17:08:07.344Z,99446.81
2022-09-09T17:10:55.118Z,99446.31
2022-09-09T17:13:44.231Z,99454.44
2022-09-09T17:16:35.134Z,99448.84
2022-09-09T17:19:23.000Z,99435.13
2022-09-09T17:22:17.281Z,99462.38
2022-09-09T17:25:06.668Z,99467.72
2022-09-09T17:27:54.646Z,99467.72
2022-09-09T17:30:42.523Z,99461.63
2022-09-09T17:33:34.214Z,99465.19
2022-09-09T17:36:32.622Z,99462.38
2022-09-09T17:39:20.850Z,99484.31
2022-09-09T17:42:09.352Z,99475.41
2022-09-09T17:44:57.165Z,99470.03
2022-09-09T17:47:45.623Z,99469.78
2022-09-09T17:50:34.702Z,99463.41
2022-09-09T17:53:22.465Z,99475.88
2022-09-09T17:56:13.105Z,99479.22
2022-09-09T17:59:03.640Z,99483.53
2022-09-09T18:01:51.636Z,99484.81
2022-09-09T18:04:39.453Z,99471.59
2022-09-09T18:07:27.248Z,99477.69
2022-09-09T18:10:15.224Z,99478.44
2022-09-09T18:13:03.013Z,99487.09
2022-09-09T18:15:50.865Z,99489.16
2022-09-09T18:18:38.827Z,99506.25
2022-09-09T18:21:27.672Z,99502.38
2022-09-09T18:24:18.508Z,99498.25
2022-09-09T18:27:06.836Z,99504.84
2022-09-09T18:29:54.541Z,99515.50
2022-09-09T18:32:42.326Z,99518.25
2022-09-09T18:35:30.085Z,99515.44
2022-09-09T18:38:17.855Z,99514.41
2022-09-09T18:41:21.391Z,99529.44
2022-09-09T18:44:21.011Z,99534.03
2022-09-09T18:47:08.811Z,99534.81
2022-09-09T18:49:56.544Z,99541.69
2022-09-09T18:52:44.455Z,99533.00
2022-09-09T18:55:32.794Z,99546.44
2022-09-09T18:58:20.711Z,99547.84
2022-09-09T19:01:14.601Z,99530.34
2022-09-09T19:04:06.104Z,99552.09
2022-09-09T19:06:57.841Z,99557.63
2022-09-09T19:09:46.298Z,99557.03
2022-09-09T19:12:34.262Z,99560.31
2022-09-09T19:15:22.158Z,99556.44
2022-09-09T19:18:10.135Z,99536.50
2022-09-09T19:20:57.907Z,99561.16
2022-09-09T19:23:47.636Z,99558.03
2022-09-09T19:26:40.806Z,99566.09
2022-09-09T19:29:32.328Z,99557.84
2022-09-09T19:35:28.455Z,99576.41
2022-09-09T19:38:16.791Z,99569.06
2022-09-09T19:41:10.542Z,99575.78
2022-09-09T19:44:01.770Z,99570.34
2022-09-09T19:46:49.957Z,99568.31
2022-09-09T19:49:37.737Z,99566.16
2022-09-09T19:52:25.754Z,99576.00
2022-09-09T19:55:13.496Z,99580.59
2022-09-09T19:58:01.865Z,99577.47
2022-09-09T20:00:49.775Z,99567.56
2022-09-09T20:03:39.415Z,99588.56
2022-09-09T20:06:31.580Z,99574.03
2022-09-09T20:09:20.683Z,99582.69
2022-09-09T20:12:08.679Z,99569.66
2022-09-09T20:14:56.463Z,99560.44
2022-09-09T20:17:44.204Z,99572.22
2022-09-09T20:20:31.955Z,99564.50
2022-09-09T20:23:19.758Z,99547.13
2022-09-09T20:26:11.343Z,99571.00
2022-09-09T20:28:59.184Z,99564.84
2022-09-09T20:31:48.391Z,99562.63
2022-09-09T20:34:36.558Z,99563.88
2022-09-09T20:37:24.437Z,99560.59
2022-09-09T20:40:12.323Z,99569.72
2022-09-09T20:43:00.066Z,99565.63
2022-09-09T20:45:47.847Z,99557.25
2022-09-09T20:48:38.057Z,99576.78
2022-09-09T20:51:27.914Z,99536.13
2022-09-09T20:54:25.869Z,99574.47
2022-09-09T20:57:14.444Z,99567.84
2022-09-09T21:00:04.954Z,99560.94
2022-09-09T21:02:53.049Z,99552.03
2022-09-09T21:05:40.830Z,99554.50
2022-09-09T21:08:29.916Z,99576.91
2022-09-09T21:11:17.956Z,99556.97
2022-09-09T21:14:06.135Z,99563.59
2022-09-09T21:16:54.485Z,99585.44
2022-09-09T21:19:42.670Z,99551.34
2022-09-09T21:22:33.331Z,99578.94
2022-09-09T21:25:21.091Z,99586.78
2022-09-09T21:28:10.211Z,99579.13
2022-09-09T21:30:58.135Z,99586.25
2022-09-09T21:33:46.433Z,99593.25
2022-09-09T21:36:34.190Z,99593.00
2022-09-09T21:39:22.025Z,99596.75
2022-09-09T21:42:09.778Z,99594.94
2022-09-09T21:44:57.677Z,99612.88
2022-09-09T21:47:47.035Z,99612.88
2022-09-09T21:50:39.873Z,99598.66
2022-09-09T21:53:27.641Z,99607.78
2022-09-09T21:56:18.998Z,99608.25
2022-09-09T21:59:06.945Z,99609.63
2022-09-09T22:01:54.822Z,99576.63
2022-09-09T22:04:43.268Z,99598.78
2022-09-09T22:07:32.395Z,99585.00
2022-09-09T22:10:21.633Z,99612.63
2022-09-09T22:13:09.422Z,99596.50
2022-09-09T22:15:58.229Z,99616.47
2022-09-09T22:18:56.458Z,99621.47
2022-09-09T22:21:44.276Z,99627.31
2022-09-09T22:24:32.027Z,99609.72
2022-09-09T22:27:19.792Z,99609.44
2022-09-09T22:30:08.735Z,99614.41
2022-09-09T22:32:57.730Z,99612.47
2022-09-09T22:35:45.499Z,99593.66
2022-09-09T22:38:35.250Z,99600.53
2022-09-09T22:41:24.911Z,99604.56
2022-09-09T22:44:12.865Z,99596.44
2022-09-09T22:47:01.424Z,99596.56
2022-09-09T22:49:49.269Z,99599.16
2022-09-09T22:52:37.022Z,99599.63
2022-09-09T22:55:25.996Z,99591.81
2022-09-09T22:58:13.873Z,99600.47
2022-09-09T23:01:08.764Z,99609.59
2022-09-09T23:04:02.526Z,99608.25
2022-09-09T23:06:50.370Z,99593.56
2022-09-09T23:09:38.122Z,99584.53
2022-09-09T23:12:25.988Z,99608.06
2022-09-09T23:15:14.065Z,99585.31
2022-09-09T23:18:02.014Z,99595.50
2022-09-09T23:21:02.627Z,99611.03
2022-09-09T23:23:53.452Z,99612.22
2022-09-09T23:26:44.702Z,99626.47
2022-09-09T23:29:32.461Z,99612.81
2022-09-09T23:32:20.240Z,99615.31
2022-09-09T23:35:08.708Z,99624.34
2022-09-09T23:37:57.025Z,99617.22
2022-09-09T23:40:45.700Z,99605.31
2022-09-09T23:43:39.335Z,99608.88
2022-09-09T23:46:29.165Z,99620.97
2022-09-09T23:49:17.044Z,99617.41
2022-09-09T23:52:06.671Z,99605.97
2022-09-09T23:54:55.984Z,99596.34
2022-09-09T23:57:43.792Z,99600.19
